Flight Track Log - Related Links

Times and Time Zones

All times are in EDT time to prevent confusion due to time zone crossing. See the EGF3796 flight status page for this flight to view local times or setup timezone preferences in your user account.

Time Position Orientation Groundspeed Altitude Reporting Facility
EDT Latitude Longitude Course Direction KTS MPH feet Rate Location/Type
Sat 06:52:23 PM 41.9500 -87.9000 201° Southwest 172 198 1,300  Level Chicago TRACON
Sat 06:53:23 PM 41.9000 -87.9167 194° South 213 245 3,000 2,200 Climbing Chicago TRACON
Sat 06:54:00 PM 41.6791 -88.0395 203° Southwest  Level FlightAware Approximate
Sat 06:54:23 PM 41.8333 -87.9333 191° South 260 299 5,700  Level Chicago TRACON
Sat 06:54:48 PM 41.8081 -87.9378 187° South 245 282 6,500 2,512 Climbing Chicago Center
Sat 06:55:00 PM 41.5806 -88.0911 197° South  Level FlightAware Approximate
Sat 06:55:49 PM 41.7411 -87.9792 205° Southwest 265 305 9,300  Level Chicago Center
Sat 06:56:00 PM 41.4791 -88.1317 197° South  Level FlightAware Approximate
Sat 06:56:51 PM 41.6550 -88.0303 204° Southwest 283 326 12,400  Level Chicago Center
Sat 06:57:00 PM 41.3772 -88.1697 201° Southwest  Level FlightAware Approximate
Sat 06:57:52 PM 41.5797 -88.0756 204° Southwest 295 339 14,100  Level Chicago Center
Sat 06:58:54 PM 41.4936 -88.1275 204° Southwest 340 391 15,500 1,403 Climbing Chicago Center
Sat 06:59:56 PM 41.4019 -88.1811 204° Southwest 374 430 17,000 1,561 Climbing Chicago Center
Sat 07:00:57 PM 41.2800 -88.2369 199° South 395 455 18,700 1,707 Climbing Chicago Center
Sat 07:01:59 PM 41.1750 -88.2842 199° South 401 461 20,500 1,854 Climbing Chicago Center
Sat 07:03:00 PM 41.0694 -88.3311 199° South 403 464 22,500 1,902 Climbing Chicago Center
Sat 07:04:02 PM 40.9661 -88.3781 199° South 395 455 24,400 1,610 Climbing Chicago Center
Sat 07:05:03 PM 40.8639 -88.4242 199° South 392 451 25,800 1,268 Climbing Chicago Center
Sat 07:06:05 PM 40.7589 -88.4708 199° South 397 457 27,000 1,171 Climbing Chicago Center
Sat 07:07:06 PM 40.6403 -88.5528 208° Southwest 414 476 28,200 1,073 Climbing Chicago Center
Sat 07:08:08 PM 40.5533 -88.6506 221° Southwest 415 478 29,200 927 Climbing Chicago Center
Sat 07:09:09 PM 40.4667 -88.7472 220° Southwest 422 486 30,100 976 Climbing Chicago Center
Sat 07:10:11 PM 40.3761 -88.8486 220° Southwest 425 489 31,200 1,024 Climbing Chicago Center
Sat 07:11:12 PM 40.2831 -88.9508 220° Southwest 433 498 32,200 878 Climbing Chicago Center
Sat 07:12:14 PM 40.1917 -89.0503 220° Southwest 430 495 33,000 414 Climbing Chicago Center
Sat 07:13:08 PM 40.1008 -89.1494 220° Southwest 427 491 33,000  Level Kansas City Center
Sat 07:14:09 PM 40.0069 -89.2528 220° Southwest 435 501 33,000  Level Kansas City Center
Sat 07:15:11 PM 39.9117 -89.3553 220° Southwest 440 506 33,000  Level Kansas City Center
Sat 07:16:12 PM 39.8178 -89.4603 221° Southwest 443 510 33,000  Level Kansas City Center
Sat 07:17:14 PM 39.7225 -89.5631 220° Southwest 442 509 33,000 146 Level Kansas City Center
Sat 07:18:15 PM 39.6161 -89.6772 220° Southwest 441 507 33,300 492 Climbing Kansas City Center
Sat 07:19:16 PM 39.5239 -89.7781 220° Southwest 437 503 34,000 341 Climbing Kansas City Center
Sat 07:20:18 PM 39.4303 -89.8758 219° Southwest 434 499 34,000 195 Level Kansas City Center
Sat 07:21:19 PM 39.3381 -89.9767 220° Southwest 435 501 34,400 683 Climbing Kansas City Center
Sat 07:22:21 PM 39.2561 -90.0853 226° Southwest 425 489 35,400 780 Climbing Kansas City Center
Sat 07:23:22 PM 39.1778 -90.1992 228° Southwest 425 489 36,000 439 Climbing Kansas City Center
Sat 07:24:24 PM 39.0981 -90.3139 228° Southwest 430 495 36,300 634 Climbing Kansas City Center
Sat 07:25:25 PM 39.0183 -90.4278 228° Southwest 432 497 37,300 829 Climbing Kansas City Center
Sat 07:26:27 PM 38.9228 -90.5639 228° Southwest 415 478 38,000 341 Climbing Kansas City Center
Sat 07:27:28 PM 38.8433 -90.6736 227° Southwest 416 479 38,000  Level Kansas City Center
Sat 07:28:29 PM 38.7700 -90.7792 228° Southwest 429 494 38,000  Level Kansas City Center
Sat 07:29:31 PM 38.6889 -90.8925 228° Southwest 435 501 38,000  Level Kansas City Center
Sat 07:30:32 PM 38.6069 -91.0067 227° Southwest 438 504 38,000  Level Kansas City Center
Sat 07:31:34 PM 38.5242 -91.1222 228° Southwest 442 509 38,000  Level Kansas City Center
Sat 07:32:35 PM 38.4236 -91.2614 227° Southwest 445 512 38,000  Level Kansas City Center
Sat 07:33:37 PM 38.3389 -91.3786 227° Southwest 449 517 38,000  Level Kansas City Center
Sat 07:34:38 PM 38.2583 -91.4878 227° Southwest 448 516 38,000  Level Kansas City Center
Sat 07:35:39 PM 38.1725 -91.6061 227° Southwest 450 518 38,000  Level Kansas City Center
Sat 07:36:41 PM 38.0869 -91.7253 228° Southwest 451 519 38,000  Level Kansas City Center
Sat 07:37:42 PM 37.9997 -91.8414 226° Southwest 450 518 38,000  Level Kansas City Center
Sat 07:38:44 PM 37.8958 -91.9833 227° Southwest 451 519 38,000 -976 Level Kansas City Center
Sat 07:39:45 PM 37.8103 -92.0992 227° Southwest 447 514 36,000 -1,951 Descending Kansas City Center
Sat 07:40:47 PM 37.7272 -92.2117 227° Southwest 445 512 34,000 -2,000 Descending Kansas City Center
Sat 07:41:48 PM 37.6406 -92.3278 227° Southwest 440 506 31,900 -2,262 Descending Kansas City Center
Sat 07:42:49 PM 37.5531 -92.4444 227° Southwest 449 517 29,400 -2,488 Descending Kansas City Center
Sat 07:43:51 PM 37.4672 -92.5622 227° Southwest 453 521 26,800 -2,390 Descending Kansas City Center
Sat 07:44:52 PM 37.3828 -92.6717 226° Southwest 441 507 24,500 -2,049 Descending Kansas City Center
Sat 07:45:54 PM 37.3006 -92.7786 226° Southwest 431 496 22,600 -1,659 Descending Kansas City Center
Sat 07:46:55 PM 37.2178 -92.8886 227° Southwest 429 494 21,100 -1,475 Descending Kansas City Center
Sat 07:47:56 PM 37.1361 -92.9936 226° Southwest 424 488 19,600 -1,512 Descending Kansas City Center
Sat 07:48:58 PM 37.0592 -93.0933 226° Southwest 405 466 18,000 -1,463 Descending Kansas City Center
Sat 07:49:59 PM 36.9817 -93.1931 226° Southwest 399 459 16,600 -1,415 Descending Kansas City Center
Sat 07:51:01 PM 36.9056 -93.2942 227° Southwest 397 457 15,100 -1,561 Descending Kansas City Center
Sat 07:52:02 PM 36.8192 -93.4031 225° Southwest 390 449 13,400 -1,561 Descending Kansas City Center
Sat 07:53:04 PM 36.7456 -93.4961 225° Southwest 382 440 11,900 -1,415 Descending Kansas City Center
Sat 07:54:05 PM 36.6739 -93.5869 225° Southwest 374 430 10,500 -976 Descending Kansas City Center
Sat 07:55:07 PM 36.6136 -93.6633 226° Southwest 328 377 9,900 -1,122 Descending Kansas City Center
Sat 07:56:08 PM 36.5606 -93.7292 225° Southwest 284 327 8,200 -1,463 Descending Kansas City Center
Sat 07:57:10 PM 36.4992 -93.8058 225° Southwest 276 318 6,900 -878 Descending Kansas City Center
Sat 07:58:11 PM 36.4450 -93.8728 225° Southwest 275 316 6,400 -439 Descending Kansas City Center
Sat 07:59:13 PM 36.3939 -93.9378 226° Southwest 269 310 6,000 -976 Descending Kansas City Center
Sat 08:00:14 PM 36.3264 -93.9825 208° Southwest 274 315 4,400 -976 Descending Kansas City Center
Sat 08:01:16 PM 36.2611 -94.0200 205° Southwest 267 307 4,000 -195 Descending Kansas City Center
Sat 08:02:17 PM 36.1942 -94.0572 204° Southwest 263 303 4,000 -49 Level Kansas City Center
Sat 08:03:19 PM 36.1361 -94.1053 214° Southwest 270 311 3,900 -341 Descending Kansas City Center
Sat 08:04:20 PM 36.1175 -94.1736 251° West 229 264 3,300 -439 Descending Kansas City Center
Sat 08:05:22 PM 36.1428 -94.2419 295° West 209 241 3,000 -195 Descending Kansas City Center
Sat 08:06:23 PM 36.1894 -94.2683 335° Northwest 194 223 2,900 -98 Descending Kansas City Center

Login

Don't have an account? Register now (free) for customized features, flight alerts, and more!